Nearby METAR Reports

 

EGQL - Leuchars Raf, United Kingdom
Distance from station: SW 17km
Updated: 25/09/2020 15:50
Mostly cloudy
Mostly cloudy
 Wind from N
Wind: N 17 mph , 28 km/h
Temperature: 13°C
Dew Point: 3°C
Humidity: 51%
Barometer: 1009 hPa
Clouds: Mostly cloudy
Visibility: 6 miles , 10 km
Cloud details: Mostly cloudy 1341 m
2020/09/25 13:50 EGQL 251350Z 36015KT 9999 BKN044 13/03 Q1009 BLU
EGPN - Dundee/Riverside, United Kingdom
Distance from station: WSW 20km
Updated: 25/09/2020 15:50
Partly cloudy
Partly cloudy
 Wind from NW
Wind: NW 13 mph , 20 km/h
Temperature: 13°C
Dew Point: 3°C
Humidity: 51%
Barometer: 1010 hPa
Clouds: Partly cloudy
Visibility: 6 miles , 10 km
Cloud details: Partly cloudy 1219 m
2020/09/25 13:50 EGPN 251350Z 32011KT 9999 SCT040 13/03 Q1010
 
EGPH - Edinburgh Airpor, United Kingdom
Distance from station: SSW 74km
Updated: 25/09/2020 15:50
Mostly cloudy
Mostly cloudy
 Wind from NNW
Wind: NNW 8 mph , 13 km/h
Temperature: 13°C
Dew Point: 5°C
Humidity: 59%
Barometer: 1010 hPa
Clouds: Mostly cloudy
Visibility: 6 miles , 10 km
Cloud details: Mostly cloudy 1158 m
2020/09/25 13:50 EGPH 251350Z 33007KT 280V020 9999 BKN038 13/05 Q1010
EGPD - Aberdeen/Dyce, United Kingdom
Distance from station: NNE 82km
Updated: 25/09/2020 15:50
Mostly cloudy
Mostly cloudy
 Wind from NNW
Wind: NNW 25 mph , 41 km/h, Gust: 39 mph , 63 km/h
Temperature: 11°C
Dew Point: 3°C
Humidity: 58%
Barometer: 1009 hPa
Clouds: Mostly cloudy
Visibility: 6 miles , 10 km
Cloud details: Partly cloudy 1067 m
Mostly cloudy 1280 m
2020/09/25 13:50 EGPD 251350Z AUTO 34022G34KT 9999 SCT035 BKN042 11/03 Q1009